createdAt,value
2023-05-06T00:00:22.911Z,0.77
2023-05-06T00:00:55.217Z,0.70
2023-05-06T00:01:27.545Z,0.80
2023-05-06T00:02:02.789Z,1.10
2023-05-06T00:02:35.164Z,0.80
2023-05-06T00:03:08.198Z,0.73
2023-05-06T00:03:43.374Z,1.00
2023-05-06T00:04:15.888Z,0.80
2023-05-06T00:04:48.632Z,0.77
2023-05-06T00:05:23.729Z,0.70
2023-05-06T00:05:56.185Z,0.80
2023-05-06T00:06:31.218Z,0.63
2023-05-06T00:07:03.563Z,0.80
2023-05-06T00:07:38.711Z,0.70
2023-05-06T00:08:11.026Z,0.90
2023-05-06T00:08:43.370Z,0.77
2023-05-06T00:09:16.023Z,0.87
2023-05-06T00:09:50.991Z,0.80
2023-05-06T00:10:23.367Z,0.97
2023-05-06T00:10:55.691Z,0.70
2023-05-06T00:11:30.627Z,0.90
2023-05-06T00:12:02.982Z,0.70
2023-05-06T00:12:35.351Z,0.90
2023-05-06T00:13:10.472Z,0.80
2023-05-06T00:13:42.933Z,0.80
2023-05-06T00:14:15.270Z,0.63
2023-05-06T00:14:47.585Z,0.80
2023-05-06T00:15:22.538Z,0.80
2023-05-06T00:15:54.906Z,0.70
2023-05-06T00:16:27.419Z,0.70
2023-05-06T00:17:02.366Z,0.70
2023-05-06T00:17:34.792Z,0.70
2023-05-06T00:18:07.210Z,0.80
2023-05-06T00:18:42.275Z,0.73
2023-05-06T00:19:14.666Z,0.70
2023-05-06T00:19:47.024Z,0.80
2023-05-06T00:20:21.952Z,0.80
2023-05-06T00:20:54.284Z,0.80
2023-05-06T00:21:30.519Z,0.97
2023-05-06T00:22:05.476Z,0.83
2023-05-06T00:22:38.395Z,0.70
2023-05-06T00:23:11.198Z,0.70
2023-05-06T00:23:43.557Z,0.80
2023-05-06T00:24:18.458Z,0.80
2023-05-06T00:24:50.907Z,0.80
2023-05-06T00:25:23.305Z,0.60
2023-05-06T00:25:58.290Z,0.83
2023-05-06T00:26:30.986Z,0.70
2023-05-06T00:27:03.371Z,0.60
2023-05-06T00:27:39.048Z,0.90
2023-05-06T00:28:11.356Z,1.03
2023-05-06T00:28:44.528Z,0.60
2023-05-06T00:29:19.627Z,0.70
2023-05-06T00:29:52.975Z,0.60
2023-05-06T00:30:26.734Z,0.80
2023-05-06T00:31:00.185Z,0.80
2023-05-06T00:31:35.194Z,0.90
2023-05-06T00:32:07.680Z,0.70
2023-05-06T00:32:40.215Z,0.80
2023-05-06T00:33:15.200Z,0.60
2023-05-06T00:33:47.533Z,0.80
2023-05-06T00:34:19.970Z,1.00
2023-05-06T00:34:54.894Z,0.60
2023-05-06T00:35:27.242Z,1.00
2023-05-06T00:35:59.550Z,0.73
2023-05-06T00:36:34.561Z,0.90
2023-05-06T00:37:09.520Z,0.83
2023-05-06T00:37:45.133Z,0.77
2023-05-06T00:38:17.433Z,0.90
2023-05-06T00:38:52.396Z,0.80
2023-05-06T00:39:25.136Z,0.80
2023-05-06T00:39:57.893Z,0.73
2023-05-06T00:40:32.797Z,0.90
2023-05-06T00:41:05.731Z,0.90
2023-05-06T00:41:38.053Z,0.87
2023-05-06T00:42:13.551Z,0.70
2023-05-06T00:42:45.935Z,0.70
2023-05-06T00:43:18.290Z,0.93
2023-05-06T00:43:50.789Z,0.80
2023-05-06T00:44:25.835Z,0.90
2023-05-06T00:44:58.152Z,1.00
2023-05-06T00:45:30.824Z,0.87
2023-05-06T00:46:06.080Z,0.83
2023-05-06T00:46:38.567Z,0.80
2023-05-06T00:47:11.001Z,0.97
2023-05-06T00:47:46.144Z,0.80
2023-05-06T00:48:18.790Z,0.80
2023-05-06T00:48:51.362Z,1.00
2023-05-06T00:49:26.797Z,0.70
2023-05-06T00:49:59.112Z,0.90
2023-05-06T00:50:32.736Z,0.80
2023-05-06T00:51:07.866Z,0.90
2023-05-06T00:51:42.788Z,0.80
2023-05-06T00:52:15.537Z,0.93
2023-05-06T00:52:51.068Z,0.70
2023-05-06T00:53:23.525Z,0.70
2023-05-06T00:53:56.941Z,0.90
2023-05-06T00:54:31.984Z,0.80
2023-05-06T00:55:04.663Z,0.70
2023-05-06T00:55:37.476Z,0.80
2023-05-06T00:56:12.401Z,0.70
2023-05-06T00:56:44.796Z,0.80
2023-05-06T00:57:17.273Z,1.20
2023-05-06T00:57:52.445Z,1.10
2023-05-06T00:58:24.777Z,1.30
2023-05-06T00:58:57.114Z,1.20
2023-05-06T00:59:32.076Z,1.20
2023-05-06T01:00:07.312Z,1.03
2023-05-06T01:00:40.361Z,0.93
2023-05-06T01:01:15.843Z,1.17
2023-05-06T01:01:49.044Z,1.33
2023-05-06T01:02:21.532Z,0.90
2023-05-06T01:02:54.196Z,1.10
2023-05-06T01:03:30.426Z,1.10
2023-05-06T01:04:02.850Z,1.20
2023-05-06T01:04:36.254Z,1.10
2023-05-06T01:05:09.603Z,0.80
2023-05-06T01:05:51.068Z,0.93
2023-05-06T01:06:29.127Z,1.00
2023-05-06T01:07:27.455Z,0.80
2023-05-06T01:08:03.981Z,0.70
2023-05-06T01:08:41.015Z,0.80
2023-05-06T01:09:22.924Z,1.00
2023-05-06T01:10:03.672Z,0.77
2023-05-06T01:10:44.956Z,1.00
2023-05-06T01:11:21.769Z,0.73
2023-05-06T01:11:56.695Z,0.90
2023-05-06T01:12:34.282Z,0.93
2023-05-06T01:13:09.806Z,0.87
2023-05-06T01:13:47.795Z,0.80
2023-05-06T01:14:29.810Z,0.80
2023-05-06T01:15:08.758Z,0.90
2023-05-06T01:15:45.516Z,0.90
2023-05-06T01:16:23.076Z,0.83
2023-05-06T01:16:59.212Z,0.80
2023-05-06T01:17:32.421Z,0.93
2023-05-06T01:18:11.561Z,1.10
2023-05-06T01:18:44.934Z,1.20
2023-05-06T01:19:29.905Z,1.27
2023-05-06T01:20:06.031Z,1.20
2023-05-06T01:20:39.621Z,0.93
2023-05-06T01:21:12.901Z,1.17
2023-05-06T01:21:48.934Z,0.97
2023-05-06T01:22:24.134Z,1.10
2023-05-06T01:22:56.691Z,1.20
2023-05-06T01:23:53.457Z,1.10
2023-05-06T01:24:35.746Z,1.17
2023-05-06T01:25:11.646Z,1.03
2023-05-06T01:25:44.155Z,0.80
2023-05-06T01:26:16.797Z,1.00
2023-05-06T01:26:51.706Z,0.90
2023-05-06T01:27:24.074Z,1.00
2023-05-06T01:27:56.397Z,0.90
2023-05-06T01:28:31.306Z,1.27
2023-05-06T01:29:04.162Z,0.80
2023-05-06T01:29:38.011Z,0.83
2023-05-06T01:30:11.464Z,0.93
2023-05-06T01:30:56.287Z,0.83
2023-05-06T01:31:33.595Z,0.90
2023-05-06T01:32:26.816Z,1.00
2023-05-06T01:33:06.256Z,1.30
2023-05-06T01:33:44.981Z,1.10
2023-05-06T01:34:21.996Z,1.27
2023-05-06T01:34:58.328Z,1.20
2023-05-06T01:35:38.630Z,1.10
2023-05-06T01:36:16.165Z,1.40
2023-05-06T01:36:59.307Z,1.37
2023-05-06T01:37:41.263Z,1.20
2023-05-06T01:38:18.494Z,1.20
2023-05-06T01:39:04.412Z,0.90
2023-05-06T01:39:37.170Z,1.50
2023-05-06T01:40:10.329Z,1.03
2023-05-06T01:40:43.958Z,1.23
2023-05-06T01:41:20.816Z,1.30
2023-05-06T01:41:54.630Z,1.27
2023-05-06T01:42:27.550Z,1.27
2023-05-06T01:43:00.870Z,1.30
2023-05-06T01:43:41.502Z,1.20
2023-05-06T01:44:15.511Z,1.10
2023-05-06T01:44:49.562Z,1.20
2023-05-06T01:45:22.852Z,1.03
2023-05-06T01:45:58.020Z,0.97
2023-05-06T01:46:32.237Z,0.90
2023-05-06T01:47:05.812Z,1.27
2023-05-06T01:47:43.123Z,1.20
2023-05-06T01:48:15.634Z,1.00
2023-05-06T01:48:50.258Z,0.80
2023-05-06T01:49:26.296Z,0.80
2023-05-06T01:49:59.079Z,0.90
2023-05-06T01:50:33.014Z,0.77
2023-05-06T01:51:09.099Z,1.10
2023-05-06T01:51:41.691Z,1.10
2023-05-06T01:52:15.935Z,1.03
2023-05-06T01:53:00.488Z,0.93
2023-05-06T01:53:33.546Z,0.70
2023-05-06T01:54:09.522Z,0.87
2023-05-06T01:54:44.473Z,0.80
2023-05-06T01:55:16.858Z,0.90
2023-05-06T01:55:49.190Z,0.80
2023-05-06T01:56:26.114Z,0.80
2023-05-06T01:56:58.483Z,1.00
2023-05-06T01:57:30.838Z,0.70
2023-05-06T01:58:05.807Z,0.90
2023-05-06T01:58:38.574Z,1.10
2023-05-06T01:59:11.369Z,1.10
2023-05-06T01:59:46.330Z,0.80
2023-05-06T02:00:19.135Z,0.87
2023-05-06T02:00:51.459Z,0.80
2023-05-06T02:01:26.541Z,0.97
2023-05-06T02:01:58.995Z,0.70
2023-05-06T02:02:31.410Z,0.80
2023-05-06T02:03:03.912Z,0.70
2023-05-06T02:03:39.160Z,0.60
2023-05-06T02:04:11.695Z,0.70
2023-05-06T02:04:44.891Z,0.80
2023-05-06T02:05:17.471Z,0.70
2023-05-06T02:05:56.561Z,0.60
2023-05-06T02:06:32.471Z,0.60
2023-05-06T02:07:05.148Z,0.70
2023-05-06T02:07:37.505Z,0.53
2023-05-06T02:08:12.657Z,0.70
2023-05-06T02:08:45.042Z,0.60
2023-05-06T02:09:24.334Z,0.63
2023-05-06T02:10:04.756Z,0.60
2023-05-06T02:10:38.456Z,0.60
2023-05-06T02:11:14.055Z,0.53
2023-05-06T02:11:49.807Z,0.50
2023-05-06T02:12:22.138Z,0.60
2023-05-06T02:12:54.551Z,0.63
2023-05-06T02:13:29.588Z,0.50
2023-05-06T02:14:02.379Z,0.80
2023-05-06T02:14:37.156Z,0.60
2023-05-06T02:15:13.418Z,0.50
2023-05-06T02:15:46.256Z,0.60
2023-05-06T02:16:22.607Z,0.50
2023-05-06T02:16:58.209Z,0.50
2023-05-06T02:17:30.588Z,0.60
2023-05-06T02:18:02.975Z,0.53
2023-05-06T02:18:35.483Z,0.70
2023-05-06T02:19:10.408Z,0.70
2023-05-06T02:19:42.746Z,0.70
2023-05-06T02:20:15.278Z,0.70
2023-05-06T02:20:50.293Z,0.67
2023-05-06T02:21:23.584Z,0.80
2023-05-06T02:21:56.023Z,0.80
2023-05-06T02:22:31.454Z,0.90
2023-05-06T02:23:03.857Z,0.90
2023-05-06T02:23:36.200Z,0.90
2023-05-06T02:24:11.251Z,0.93
2023-05-06T02:24:46.158Z,1.07
2023-05-06T02:25:18.789Z,1.73
2023-05-06T02:25:53.776Z,1.87
2023-05-06T02:26:26.708Z,1.80
2023-05-06T02:26:59.058Z,1.70
2023-05-06T02:27:31.446Z,2.27
2023-05-06T02:28:06.721Z,2.30
2023-05-06T02:28:39.070Z,2.10
2023-05-06T02:29:11.460Z,1.60
2023-05-06T02:29:46.828Z,1.70
2023-05-06T02:30:19.379Z,1.10
2023-05-06T02:30:56.096Z,1.33
2023-05-06T02:31:31.891Z,1.80
2023-05-06T02:32:04.646Z,1.30
2023-05-06T02:32:37.198Z,1.20
2023-05-06T02:33:12.158Z,1.07
2023-05-06T02:33:45.685Z,1.20
2023-05-06T02:34:18.023Z,0.97
2023-05-06T02:34:50.329Z,0.93
2023-05-06T02:35:25.430Z,0.90
2023-05-06T02:35:57.831Z,1.00
2023-05-06T02:36:33.406Z,0.80
2023-05-06T02:37:05.812Z,0.87
2023-05-06T02:37:38.166Z,0.97
2023-05-06T02:38:13.075Z,0.97
2023-05-06T02:38:45.445Z,0.90
2023-05-06T02:39:17.773Z,1.07
2023-05-06T02:39:55.311Z,0.80
2023-05-06T02:40:27.684Z,0.83
2023-05-06T02:41:00.028Z,1.20
2023-05-06T02:41:34.980Z,0.77
2023-05-06T02:42:07.289Z,1.00
2023-05-06T02:42:39.711Z,1.10
2023-05-06T02:43:14.743Z,1.10
2023-05-06T02:43:47.138Z,1.03
2023-05-06T02:44:19.468Z,1.00
2023-05-06T02:44:54.418Z,0.80
2023-05-06T02:45:26.814Z,1.00
2023-05-06T02:45:59.175Z,1.00
2023-05-06T02:46:34.153Z,0.80
2023-05-06T02:47:06.480Z,1.00
2023-05-06T02:47:38.840Z,0.87
2023-05-06T02:48:13.927Z,1.10
2023-05-06T02:48:46.642Z,1.00
2023-05-06T02:49:18.966Z,1.07
2023-05-06T02:49:54.392Z,0.90
2023-05-06T02:50:26.768Z,0.90
2023-05-06T02:51:00.173Z,0.90
2023-05-06T02:51:35.193Z,0.97
2023-05-06T02:52:07.820Z,0.80
2023-05-06T02:52:40.195Z,0.90
2023-05-06T02:53:13.439Z,0.83
2023-05-06T02:53:48.381Z,0.93
2023-05-06T02:54:20.941Z,1.10
2023-05-06T02:54:55.863Z,1.00
2023-05-06T02:55:30.803Z,1.20
2023-05-06T02:56:03.191Z,1.40
2023-05-06T02:56:35.620Z,1.30
2023-05-06T02:57:10.583Z,1.50
2023-05-06T02:57:42.949Z,1.50
2023-05-06T02:58:15.301Z,1.00
2023-05-06T02:58:50.268Z,1.03
2023-05-06T02:59:24.104Z,0.90
2023-05-06T02:59:56.640Z,1.10
2023-05-06T03:00:31.587Z,0.90
2023-05-06T03:01:04.004Z,0.97
2023-05-06T03:01:36.439Z,0.70
2023-05-06T03:02:11.465Z,0.80
2023-05-06T03:02:43.796Z,0.90
2023-05-06T03:03:16.134Z,0.97
2023-05-06T03:03:51.130Z,0.73
2023-05-06T03:04:23.533Z,0.70
2023-05-06T03:04:55.940Z,0.90
2023-05-06T03:05:31.024Z,0.80
2023-05-06T03:06:03.397Z,0.90
2023-05-06T03:06:36.298Z,0.80
2023-05-06T03:07:11.538Z,0.70
2023-05-06T03:07:44.256Z,0.70
2023-05-06T03:08:16.986Z,0.77
2023-05-06T03:08:51.944Z,0.77
2023-05-06T03:09:24.251Z,0.70
2023-05-06T03:09:59.266Z,0.70
2023-05-06T03:10:34.194Z,0.80
2023-05-06T03:11:08.292Z,0.70
2023-05-06T03:11:41.396Z,0.60
2023-05-06T03:12:16.490Z,0.60
2023-05-06T03:12:48.874Z,0.90
2023-05-06T03:13:21.308Z,0.80
2023-05-06T03:13:56.289Z,0.80
2023-05-06T03:14:29.453Z,0.90
2023-05-06T03:15:03.426Z,0.87
2023-05-06T03:15:38.398Z,0.80
2023-05-06T03:16:13.499Z,0.70
2023-05-06T03:16:48.102Z,0.80
2023-05-06T03:17:23.456Z,0.70
2023-05-06T03:17:57.699Z,0.70
2023-05-06T03:18:30.984Z,0.90
2023-05-06T03:19:06.738Z,0.80
2023-05-06T03:19:39.720Z,0.70
2023-05-06T03:20:16.568Z,0.70
2023-05-06T03:20:56.125Z,0.63
2023-05-06T03:21:28.539Z,0.70
2023-05-06T03:22:03.636Z,0.73
2023-05-06T03:22:38.576Z,0.60
2023-05-06T03:23:11.040Z,0.90
2023-05-06T03:23:45.949Z,0.80
2023-05-06T03:24:18.309Z,0.73
2023-05-06T03:24:50.883Z,0.93
2023-05-06T03:25:28.630Z,0.80
2023-05-06T03:26:01.706Z,0.93
2023-05-06T03:26:35.074Z,0.70
2023-05-06T03:27:10.921Z,0.67
2023-05-06T03:27:43.551Z,0.77
2023-05-06T03:28:22.827Z,0.77
2023-05-06T03:28:58.164Z,0.60
2023-05-06T03:29:30.995Z,0.87
2023-05-06T03:30:03.443Z,0.93
2023-05-06T03:30:38.524Z,0.90
2023-05-06T03:31:12.938Z,0.90
2023-05-06T03:31:45.495Z,1.10
2023-05-06T03:32:21.439Z,0.80
2023-05-06T03:32:56.395Z,1.00
2023-05-06T03:33:34.580Z,1.00
2023-05-06T03:34:10.161Z,0.83
2023-05-06T03:34:42.871Z,0.90
2023-05-06T03:35:18.401Z,0.83
2023-05-06T03:35:58.354Z,1.10
2023-05-06T03:36:34.622Z,1.10
2023-05-06T03:37:07.462Z,0.83
2023-05-06T03:37:42.941Z,1.00
2023-05-06T03:38:15.298Z,1.00
2023-05-06T03:38:55.377Z,1.00
2023-05-06T03:39:31.157Z,1.30
2023-05-06T03:40:07.712Z,1.00
2023-05-06T03:40:42.791Z,1.10
2023-05-06T03:41:18.301Z,0.97
2023-05-06T03:41:51.492Z,1.00
2023-05-06T03:42:24.062Z,1.00
2023-05-06T03:42:59.121Z,0.90
2023-05-06T03:43:32.196Z,1.10
2023-05-06T03:44:07.069Z,0.77
2023-05-06T03:44:41.986Z,0.90
2023-05-06T03:45:15.461Z,0.87
2023-05-06T03:45:48.341Z,0.80
2023-05-06T03:46:23.619Z,0.73
2023-05-06T03:46:56.153Z,0.83
2023-05-06T03:47:29.467Z,0.70
2023-05-06T03:48:04.545Z,0.90
2023-05-06T03:48:39.221Z,1.10
2023-05-06T03:49:15.585Z,0.90
2023-05-06T03:49:53.229Z,1.10
2023-05-06T03:50:25.841Z,0.93
2023-05-06T03:50:59.667Z,1.00
2023-05-06T03:51:35.625Z,1.03
2023-05-06T03:52:08.397Z,1.10
2023-05-06T03:52:41.007Z,1.17
2023-05-06T03:53:13.434Z,1.50
2023-05-06T03:53:51.815Z,1.43
2023-05-06T03:54:25.901Z,1.50
2023-05-06T03:54:58.544Z,1.53
2023-05-06T03:55:34.467Z,1.47
2023-05-06T03:56:09.908Z,1.50
2023-05-06T03:56:43.996Z,1.40
2023-05-06T03:57:19.005Z,1.20
2023-05-06T03:57:51.565Z,1.50
2023-05-06T03:58:25.255Z,1.33
2023-05-06T03:59:00.506Z,1.20
2023-05-06T03:59:33.973Z,1.30
2023-05-06T04:00:10.078Z,1.47
2023-05-06T04:00:50.950Z,1.40
2023-05-06T04:01:23.306Z,1.50
2023-05-06T04:01:56.468Z,1.50
2023-05-06T04:02:31.974Z,1.07
2023-05-06T04:03:04.579Z,1.10
2023-05-06T04:03:45.078Z,1.50
2023-05-06T04:04:20.663Z,1.13
2023-05-06T04:04:53.069Z,1.33
2023-05-06T04:05:25.525Z,1.60
2023-05-06T04:05:58.347Z,1.40
2023-05-06T04:06:34.717Z,1.50
2023-05-06T04:07:07.866Z,1.17
2023-05-06T04:07:40.184Z,1.23
2023-05-06T04:08:15.104Z,1.30
2023-05-06T04:08:47.547Z,1.43
2023-05-06T04:09:20.179Z,1.43
2023-05-06T04:09:56.313Z,1.30
2023-05-06T04:10:28.728Z,1.10
2023-05-06T04:11:11.180Z,1.40
2023-05-06T04:11:46.288Z,1.33
2023-05-06T04:12:21.870Z,1.47
2023-05-06T04:12:54.349Z,1.13
2023-05-06T04:13:34.329Z,1.37
2023-05-06T04:14:10.350Z,1.50
2023-05-06T04:14:43.154Z,1.33
2023-05-06T04:15:18.207Z,1.27
2023-05-06T04:15:50.746Z,1.43
2023-05-06T04:16:27.284Z,1.20
2023-05-06T04:17:02.303Z,1.40
2023-05-06T04:17:34.766Z,1.40
2023-05-06T04:18:08.101Z,1.13
2023-05-06T04:18:46.323Z,1.60
2023-05-06T04:19:21.298Z,1.80
2023-05-06T04:19:54.236Z,1.40
2023-05-06T04:20:26.559Z,1.47
2023-05-06T04:21:01.810Z,1.30
2023-05-06T04:21:35.906Z,1.50
2023-05-06T04:22:15.845Z,1.33
2023-05-06T04:22:48.234Z,1.17
2023-05-06T04:23:21.755Z,1.27
2023-05-06T04:23:57.390Z,1.30
2023-05-06T04:24:37.738Z,1.40
2023-05-06T04:25:11.267Z,1.33
2023-05-06T04:25:49.502Z,1.30
2023-05-06T04:26:26.290Z,1.60
2023-05-06T04:26:59.304Z,1.20
2023-05-06T04:27:34.608Z,1.30
2023-05-06T04:28:06.942Z,1.10
2023-05-06T04:28:40.083Z,1.60
2023-05-06T04:29:16.568Z,1.30
2023-05-06T04:30:01.744Z,1.20
2023-05-06T04:30:36.285Z,1.43
2023-05-06T04:31:11.490Z,1.23
2023-05-06T04:31:48.821Z,1.20
2023-05-06T04:32:21.790Z,1.30
2023-05-06T04:32:57.283Z,1.33
2023-05-06T04:33:30.243Z,1.40
2023-05-06T04:34:04.660Z,1.47
2023-05-06T04:34:40.494Z,1.30
2023-05-06T04:35:14.438Z,1.10
2023-05-06T04:35:51.468Z,1.20
2023-05-06T04:36:26.403Z,1.37
2023-05-06T04:37:13.911Z,1.60
2023-05-06T04:38:15.808Z,1.47
2023-05-06T04:38:48.507Z,1.40
2023-05-06T04:39:21.479Z,1.30
2023-05-06T04:39:57.436Z,1.20
2023-05-06T04:40:30.113Z,1.30
2023-05-06T04:41:04.137Z,0.97
2023-05-06T04:41:39.128Z,0.90
2023-05-06T04:42:14.547Z,1.00
2023-05-06T04:42:53.879Z,1.17
2023-05-06T04:43:32.976Z,1.17
2023-05-06T04:44:13.115Z,0.80
2023-05-06T04:44:49.039Z,1.00
2023-05-06T04:45:26.297Z,1.00
2023-05-06T04:45:59.918Z,0.90
2023-05-06T04:46:36.433Z,0.90
2023-05-06T04:47:12.356Z,0.90
2023-05-06T04:47:47.670Z,0.70
2023-05-06T04:48:22.528Z,0.70
2023-05-06T04:48:58.584Z,0.90
2023-05-06T04:49:31.506Z,0.93
2023-05-06T04:50:04.768Z,0.80
2023-05-06T04:50:39.721Z,0.90
2023-05-06T04:51:12.075Z,0.77
2023-05-06T04:51:44.720Z,1.10
2023-05-06T04:52:19.762Z,1.03
2023-05-06T04:52:52.197Z,0.90
2023-05-06T04:53:25.734Z,0.93
2023-05-06T04:54:00.693Z,0.90
2023-05-06T04:54:34.324Z,0.90
2023-05-06T04:55:07.345Z,1.07
2023-05-06T04:55:45.263Z,1.00
2023-05-06T04:56:17.612Z,0.97
2023-05-06T04:56:53.612Z,0.90
2023-05-06T04:57:29.418Z,1.30
2023-05-06T04:58:02.493Z,1.40
2023-05-06T04:58:34.950Z,1.20
2023-05-06T04:59:09.990Z,1.03
2023-05-06T04:59:43.518Z,1.13
2023-05-06T05:00:16.875Z,1.47
2023-05-06T05:00:52.090Z,1.10
2023-05-06T05:01:24.442Z,1.37
2023-05-06T05:01:56.869Z,1.30
2023-05-06T05:02:31.848Z,1.10
2023-05-06T05:03:04.526Z,1.30
2023-05-06T05:03:37.640Z,1.20
2023-05-06T05:04:13.718Z,1.23
2023-05-06T05:04:46.275Z,1.20
2023-05-06T05:05:18.836Z,1.20
2023-05-06T05:05:57.204Z,1.60
2023-05-06T05:06:32.255Z,1.40
2023-05-06T05:07:05.194Z,1.40
2023-05-06T05:07:40.518Z,1.37
2023-05-06T05:08:13.599Z,1.23
2023-05-06T05:08:46.601Z,1.30
2023-05-06T05:09:21.567Z,1.50
2023-05-06T05:09:54.673Z,1.30
2023-05-06T05:10:27.594Z,1.30
2023-05-06T05:11:02.962Z,1.70
2023-05-06T05:11:38.278Z,1.70
2023-05-06T05:12:16.139Z,1.77
2023-05-06T05:12:52.255Z,2.30
2023-05-06T05:13:24.638Z,1.70
2023-05-06T05:14:02.323Z,2.10
2023-05-06T05:14:35.901Z,1.90
2023-05-06T05:15:12.116Z,1.63
2023-05-06T05:15:45.037Z,1.50
2023-05-06T05:16:19.701Z,1.67
2023-05-06T05:16:55.108Z,2.00
2023-05-06T05:17:27.478Z,1.53
2023-05-06T05:17:59.900Z,1.57
2023-05-06T05:18:34.903Z,1.10
2023-05-06T05:19:13.405Z,1.47
2023-05-06T05:19:45.954Z,1.30
2023-05-06T05:20:22.012Z,1.50
2023-05-06T05:20:54.358Z,1.50
2023-05-06T05:21:27.880Z,1.37
2023-05-06T05:22:05.057Z,1.17
2023-05-06T05:22:38.869Z,1.43
2023-05-06T05:23:11.580Z,1.30
2023-05-06T05:23:46.765Z,1.60
2023-05-06T05:24:19.697Z,1.40
2023-05-06T05:24:52.018Z,1.50
2023-05-06T05:25:27.178Z,1.30
2023-05-06T05:25:59.625Z,1.30
2023-05-06T05:26:32.683Z,1.37
2023-05-06T05:27:08.778Z,1.40
2023-05-06T05:27:44.363Z,1.20
2023-05-06T05:28:19.288Z,1.13
2023-05-06T05:28:52.325Z,1.50
2023-05-06T05:29:24.694Z,1.30
2023-05-06T05:29:57.627Z,1.20
2023-05-06T05:30:32.758Z,1.40
2023-05-06T05:31:05.288Z,1.17
2023-05-06T05:31:41.725Z,1.47
2023-05-06T05:32:16.824Z,1.23
2023-05-06T05:32:49.269Z,1.20
2023-05-06T05:33:22.420Z,1.70
2023-05-06T05:33:58.165Z,1.50
2023-05-06T05:34:30.717Z,1.60
2023-05-06T05:35:03.267Z,1.50
2023-05-06T05:35:38.470Z,1.40
2023-05-06T05:36:15.455Z,1.47
2023-05-06T05:36:49.360Z,1.40
2023-05-06T05:37:24.296Z,1.63
2023-05-06T05:37:56.974Z,1.60
2023-05-06T05:38:29.639Z,1.50
2023-05-06T05:39:04.605Z,1.60
2023-05-06T05:39:39.399Z,1.80
2023-05-06T05:40:13.890Z,1.93
2023-05-06T05:40:51.593Z,1.60
2023-05-06T05:41:24.145Z,1.67
2023-05-06T05:41:56.725Z,1.60
2023-05-06T05:42:33.873Z,1.97
2023-05-06T05:43:13.413Z,1.80
2023-05-06T05:43:50.074Z,1.80
2023-05-06T05:44:22.410Z,1.83
2023-05-06T05:44:55.153Z,1.60
2023-05-06T05:45:30.113Z,1.70
2023-05-06T05:46:02.785Z,2.10
2023-05-06T05:46:37.581Z,1.60
2023-05-06T05:47:14.110Z,1.80
2023-05-06T05:47:47.102Z,1.50
2023-05-06T05:48:20.937Z,1.30
2023-05-06T05:48:56.018Z,1.70
2023-05-06T05:49:29.937Z,1.73
2023-05-06T05:50:02.284Z,1.73
2023-05-06T05:50:35.794Z,1.60
2023-05-06T05:51:10.762Z,1.60
2023-05-06T05:51:43.165Z,1.80
2023-05-06T05:52:17.462Z,2.10
2023-05-06T05:52:52.473Z,1.73
2023-05-06T05:53:25.647Z,1.90
2023-05-06T05:53:58.000Z,1.90
2023-05-06T05:54:35.201Z,2.00
2023-05-06T05:55:09.250Z,1.70
2023-05-06T05:55:42.849Z,2.60
2023-05-06T05:56:18.305Z,2.10
2023-05-06T05:56:51.805Z,2.00
2023-05-06T05:57:24.717Z,2.53
2023-05-06T05:58:01.446Z,1.90
2023-05-06T05:58:39.644Z,2.23
2023-05-06T05:59:11.979Z,2.63
2023-05-06T05:59:46.906Z,2.57
2023-05-06T06:00:20.209Z,2.30
2023-05-06T06:00:52.633Z,2.20
2023-05-06T06:01:28.426Z,2.43
2023-05-06T06:02:01.782Z,2.33
2023-05-06T06:02:34.698Z,2.53
2023-05-06T06:03:10.024Z,2.50
2023-05-06T06:03:44.119Z,2.33
2023-05-06T06:04:19.200Z,2.53
2023-05-06T06:04:51.677Z,1.80
2023-05-06T06:05:24.142Z,2.33
2023-05-06T06:05:59.517Z,2.40
2023-05-06T06:06:33.299Z,2.10
2023-05-06T06:07:06.142Z,2.10
2023-05-06T06:07:45.573Z,2.10
2023-05-06T06:08:18.734Z,2.00
2023-05-06T06:08:52.763Z,2.07
2023-05-06T06:09:28.595Z,2.03
2023-05-06T06:10:01.427Z,2.20
2023-05-06T06:10:34.845Z,2.47
2023-05-06T06:11:14.260Z,2.10
2023-05-06T06:11:47.413Z,2.50
2023-05-06T06:12:21.848Z,2.30
2023-05-06T06:12:57.039Z,2.50
2023-05-06T06:13:33.003Z,2.20
2023-05-06T06:14:11.434Z,2.20
2023-05-06T06:14:48.171Z,2.37
2023-05-06T06:15:23.652Z,2.80
2023-05-06T06:16:01.004Z,2.73
2023-05-06T06:16:33.621Z,2.10
2023-05-06T06:17:06.034Z,2.40
2023-05-06T06:17:41.529Z,2.50
2023-05-06T06:18:13.991Z,2.50
2023-05-06T06:18:46.390Z,2.63
2023-05-06T06:19:21.642Z,2.63
2023-05-06T06:19:57.355Z,2.30
2023-05-06T06:20:29.892Z,2.33
2023-05-06T06:21:04.880Z,2.30
2023-05-06T06:21:37.273Z,2.37
2023-05-06T06:22:09.997Z,2.70
2023-05-06T06:22:45.987Z,2.40
2023-05-06T06:23:18.350Z,2.50
2023-05-06T06:23:53.282Z,2.70
2023-05-06T06:24:26.356Z,2.80
2023-05-06T06:24:58.686Z,2.40
2023-05-06T06:25:33.634Z,2.90
2023-05-06T06:26:06.031Z,2.40
2023-05-06T06:26:41.713Z,2.80
2023-05-06T06:27:14.182Z,2.50
2023-05-06T06:27:46.524Z,2.63
2023-05-06T06:28:21.543Z,2.40
2023-05-06T06:28:53.913Z,2.60
2023-05-06T06:29:28.929Z,2.27
2023-05-06T06:30:03.905Z,2.50
2023-05-06T06:30:36.290Z,2.50
2023-05-06T06:31:11.250Z,2.60
2023-05-06T06:31:44.074Z,2.60
2023-05-06T06:32:16.533Z,2.50
2023-05-06T06:32:52.803Z,2.47
2023-05-06T06:33:25.400Z,2.47
2023-05-06T06:34:00.311Z,2.43
2023-05-06T06:34:32.673Z,2.40
2023-05-06T06:35:05.838Z,2.60
2023-05-06T06:35:40.808Z,2.63
2023-05-06T06:36:13.138Z,2.20
2023-05-06T06:36:47.864Z,2.43
2023-05-06T06:37:22.819Z,2.60
2023-05-06T06:37:55.265Z,2.73
2023-05-06T06:38:27.596Z,2.43
2023-05-06T06:39:02.518Z,2.30
2023-05-06T06:39:34.865Z,2.27
2023-05-06T06:40:08.960Z,2.47
2023-05-06T06:40:43.879Z,2.17
2023-05-06T06:41:16.182Z,2.60
2023-05-06T06:41:48.501Z,2.40
2023-05-06T06:42:23.587Z,2.63
2023-05-06T06:43:10.564Z,2.90
2023-05-06T06:44:04.010Z,2.33
2023-05-06T06:44:38.959Z,2.27
2023-05-06T06:45:12.399Z,2.63
2023-05-06T06:45:50.172Z,2.90
2023-05-06T06:46:22.532Z,2.63
2023-05-06T06:46:54.916Z,2.90
2023-05-06T06:47:29.865Z,2.43
2023-05-06T06:48:02.242Z,2.77
2023-05-06T06:48:34.585Z,2.60
2023-05-06T06:49:09.476Z,2.70
2023-05-06T06:49:41.809Z,2.50
2023-05-06T06:50:14.281Z,2.53
2023-05-06T06:50:49.327Z,2.60
2023-05-06T06:51:21.671Z,2.47
2023-05-06T06:51:54.139Z,2.50
2023-05-06T06:52:29.051Z,2.60
2023-05-06T06:53:02.608Z,2.40
2023-05-06T06:53:35.961Z,2.77
2023-05-06T06:54:10.854Z,2.40
2023-05-06T06:54:43.145Z,2.60
2023-05-06T06:55:15.563Z,2.47
2023-05-06T06:55:50.536Z,2.50
2023-05-06T06:56:23.305Z,2.27
2023-05-06T06:56:56.311Z,2.90
2023-05-06T06:57:31.506Z,2.63
2023-05-06T06:58:03.881Z,2.90
2023-05-06T06:58:36.194Z,2.90
2023-05-06T06:59:11.181Z,2.97
2023-05-06T06:59:47.874Z,2.43
2023-05-06T07:00:20.182Z,2.57
2023-05-06T07:00:55.178Z,2.80
2023-05-06T07:01:27.583Z,3.00
2023-05-06T07:02:00.058Z,2.80
2023-05-06T07:02:34.971Z,2.80
2023-05-06T07:03:07.346Z,3.00
2023-05-06T07:03:39.682Z,2.47
2023-05-06T07:04:14.655Z,2.57
2023-05-06T07:04:47.077Z,2.70
2023-05-06T07:05:19.417Z,2.63
2023-05-06T07:05:54.307Z,2.53
2023-05-06T07:06:26.611Z,2.60
2023-05-06T07:06:58.940Z,2.60
2023-05-06T07:07:31.345Z,2.60
2023-05-06T07:08:06.474Z,2.87
2023-05-06T07:08:38.780Z,2.77
2023-05-06T07:09:11.087Z,2.63
2023-05-06T07:09:46.030Z,2.50
2023-05-06T07:10:18.563Z,2.30
2023-05-06T07:10:50.987Z,2.90
2023-05-06T07:11:25.941Z,2.70
2023-05-06T07:11:58.830Z,2.80
2023-05-06T07:12:31.142Z,2.60
2023-05-06T07:13:06.124Z,2.17
2023-05-06T07:13:38.517Z,2.60
2023-05-06T07:14:11.724Z,2.40
2023-05-06T07:14:49.401Z,2.70
2023-05-06T07:15:22.066Z,2.90
2023-05-06T07:15:56.991Z,2.47
2023-05-06T07:16:29.391Z,2.77
2023-05-06T07:17:01.956Z,2.40
2023-05-06T07:17:37.072Z,2.30
2023-05-06T07:18:10.164Z,2.33
2023-05-06T07:18:42.632Z,2.70
2023-05-06T07:19:17.542Z,2.87
2023-05-06T07:19:49.888Z,2.53
2023-05-06T07:20:22.189Z,2.33
2023-05-06T07:20:57.106Z,2.17
2023-05-06T07:21:32.366Z,2.60
2023-05-06T07:22:07.322Z,2.70
2023-05-06T07:22:41.458Z,2.37
2023-05-06T07:23:16.451Z,2.60
2023-05-06T07:23:48.833Z,2.53
2023-05-06T07:24:21.379Z,2.60
2023-05-06T07:24:56.334Z,2.20
2023-05-06T07:25:28.652Z,2.50
2023-05-06T07:26:03.680Z,2.50
2023-05-06T07:26:36.259Z,2.80
2023-05-06T07:27:08.582Z,2.47
2023-05-06T07:27:43.533Z,2.10
2023-05-06T07:28:15.928Z,2.23
2023-05-06T07:28:48.293Z,2.10
2023-05-06T07:29:23.330Z,2.43
2023-05-06T07:29:58.258Z,2.60
2023-05-06T07:30:30.740Z,2.37
2023-05-06T07:31:05.741Z,2.80
2023-05-06T07:31:38.180Z,2.97
2023-05-06T07:32:10.717Z,2.80
2023-05-06T07:32:45.774Z,2.37
2023-05-06T07:33:18.091Z,2.97
2023-05-06T07:33:50.445Z,2.80
2023-05-06T07:34:25.393Z,2.47
2023-05-06T07:34:57.701Z,2.07
2023-05-06T07:35:30.025Z,2.57
2023-05-06T07:36:04.960Z,2.40
2023-05-06T07:36:40.901Z,2.20
2023-05-06T07:37:13.332Z,2.20
2023-05-06T07:37:49.212Z,1.90
2023-05-06T07:38:22.209Z,2.20
2023-05-06T07:38:54.590Z,1.97